North Platte Regional Airport Lee Bird Field
KLBF : now visible

Airfield :











YOU CAN JOIN US ON...

 
LOGIN :

Register | Disclaimer

   EN    FR    IT 

 









Legend :    VFR   Marginal VFR   IFR   Intensive IFR   Very Intensive IFR
Visi :
Ceiling :
>= 8 km
>= 3000ft
5 to 8 km
1000 to 3000 ft
1500m to 5 km
500 to 1000 ft
800 to 1500m
200 to 500 ft
< 800m
< 200 ft
Symbols :   Thunderstorms  Fog  Heavy snow  Heavy precipitations  Wind > 20 kt







- Airport Elevation : 2777 ft
- IATA code : LBF


KLBF - North Platte Regional Lee Bird Field

CURRENT METAR :
  • 211553Z AUTO 04009KT 10SM CLR 20/10 A2966 RMK AO2 SLP021 T02000100

EXPIRED METARs :
  • 211453Z AUTO 36003KT 10SM CLR 18/11 A2966 RMK AO2 SLP022 T01780106 51010
  • 211353Z AUTO 15007KT 10SM CLR 16/09 A2965 RMK AO2 PRESRR SLP019 T01560094

TAF KLBF
Valid from the 21 at 12:00 until the 22 at 12:00 UTC


211120Z 2112/2212 06008KT P6SM BKN200
FM211800 03010KT P6SM BKN180
FM212100 36015G21KT P6SM VCSH BKN060
FM220400 33016G23KT P6SM VCSH OVC030
FM220600 33018G24KT P6SM OVC015
KZDV FIR / North America



MET'MAP, your aeronautical weather chart ! - Copyright ORBIFLY December 2007 - Disclaimer

ORBIFLY MET'MAP TEAM :

Programming & Development : Alexandra Zaïnal
Concept & Development : Baudouin d'Aumeries
Co-Development & Prog : Marc-Olivier Méhu
Technical & hardware support : Manuel Goepfert

Contact : metmap@orbifly.com




SOURCES & CREDITS :

   NOAA       Earth
Advisory